createdAt,value
2019-02-10T00:00:22.870Z,5.50
2019-02-10T00:01:22.849Z,5.40
2019-02-10T00:02:22.848Z,5.46
2019-02-10T00:03:22.840Z,5.56
2019-02-10T00:04:22.836Z,5.53
2019-02-10T00:05:22.824Z,5.48
2019-02-10T00:06:24.685Z,5.46
2019-02-10T00:07:22.816Z,5.48
2019-02-10T00:08:22.799Z,5.43
2019-02-10T00:09:22.795Z,5.52
2019-02-10T00:10:22.799Z,5.52
2019-02-10T00:11:22.778Z,5.32
2019-02-10T00:12:22.785Z,5.45
2019-02-10T00:13:22.758Z,5.45
2019-02-10T00:14:22.750Z,5.57
2019-02-10T00:15:22.742Z,5.52
2019-02-10T00:16:22.734Z,5.60
2019-02-10T00:17:22.728Z,5.53
2019-02-10T00:18:22.748Z,5.59
2019-02-10T00:19:22.711Z,5.56
2019-02-10T00:20:22.719Z,5.52
2019-02-10T00:21:22.724Z,5.50
2019-02-10T00:22:22.766Z,5.50
2019-02-10T00:23:22.675Z,5.53
2019-02-10T00:24:22.681Z,5.48
2019-02-10T00:25:22.659Z,5.40
2019-02-10T00:26:22.653Z,5.46
2019-02-10T00:27:22.642Z,5.45
2019-02-10T00:28:22.633Z,5.45
2019-02-10T00:29:22.627Z,5.41
2019-02-10T00:30:22.634Z,5.41
2019-02-10T00:31:22.625Z,5.48
2019-02-10T00:32:22.602Z,5.53
2019-02-10T00:33:22.628Z,5.60
2019-02-10T00:34:22.586Z,5.70
2019-02-10T00:35:22.582Z,5.73
2019-02-10T00:36:22.615Z,5.82
2019-02-10T00:37:22.561Z,5.78
2019-02-10T00:38:22.558Z,5.68
2019-02-10T00:39:22.544Z,5.63
2019-02-10T00:40:22.556Z,5.49
2019-02-10T00:41:22.528Z,5.41
2019-02-10T00:42:22.514Z,5.52
2019-02-10T00:43:22.519Z,5.37
2019-02-10T00:44:22.548Z,5.46
2019-02-10T00:45:24.276Z,5.52
2019-02-10T00:46:22.488Z,5.52
2019-02-10T00:47:22.478Z,5.52
2019-02-10T00:48:22.463Z,5.48
2019-02-10T00:49:22.480Z,5.57
2019-02-10T00:50:22.473Z,5.50
2019-02-10T00:51:22.443Z,5.48
2019-02-10T00:52:22.448Z,5.63
2019-02-10T00:53:22.429Z,5.68
2019-02-10T00:54:22.423Z,5.71
2019-02-10T00:55:22.438Z,5.63
2019-02-10T00:56:22.406Z,5.64
2019-02-10T00:57:22.397Z,5.67
2019-02-10T00:58:22.388Z,5.56
2019-02-10T00:59:22.380Z,5.60
2019-02-10T01:00:22.388Z,5.67
2019-02-10T01:01:22.364Z,5.70
2019-02-10T01:02:22.362Z,5.64
2019-02-10T01:03:22.347Z,5.45
2019-02-10T01:04:22.339Z,5.34
2019-02-10T01:05:22.331Z,5.28
2019-02-10T01:06:22.323Z,5.25
2019-02-10T01:07:22.347Z,5.13
2019-02-10T01:08:22.306Z,5.02
2019-02-10T01:09:22.300Z,5.09
2019-02-10T01:10:22.311Z,4.98
2019-02-10T01:11:22.281Z,4.99
2019-02-10T01:12:22.334Z,4.91
2019-02-10T01:13:22.265Z,4.79
2019-02-10T01:14:22.260Z,4.83
2019-02-10T01:15:22.249Z,4.84
2019-02-10T01:16:22.243Z,4.95
2019-02-10T01:17:22.334Z,5.01
2019-02-10T01:18:22.223Z,5.25
2019-02-10T01:19:22.215Z,5.37
2019-02-10T01:20:22.228Z,5.57
2019-02-10T01:21:22.200Z,5.56
2019-02-10T01:22:22.337Z,5.43
2019-02-10T01:23:22.186Z,5.43
2019-02-10T01:24:22.175Z,5.41
2019-02-10T01:25:22.165Z,5.48
2019-02-10T01:26:22.158Z,5.45
2019-02-10T01:27:22.311Z,5.40
2019-02-10T01:28:22.144Z,5.46
2019-02-10T01:29:22.134Z,5.48
2019-02-10T01:30:22.137Z,5.45
2019-02-10T01:31:22.110Z,5.32
2019-02-10T01:32:22.195Z,5.17
2019-02-10T01:33:22.102Z,5.17
2019-02-10T01:34:22.091Z,5.12
2019-02-10T01:35:22.082Z,5.01
2019-02-10T01:36:22.074Z,4.95
2019-02-10T01:37:22.329Z,4.89
2019-02-10T01:38:22.072Z,4.89
2019-02-10T01:39:22.054Z,4.92
2019-02-10T01:40:22.045Z,4.91
2019-02-10T01:41:22.034Z,4.96
2019-02-10T01:42:22.032Z,5.02
2019-02-10T01:43:22.016Z,5.07
2019-02-10T01:44:22.015Z,5.16
2019-02-10T01:45:21.998Z,5.31
2019-02-10T01:46:21.990Z,5.37
2019-02-10T01:47:21.993Z,5.35
2019-02-10T01:48:21.973Z,5.37
2019-02-10T01:49:21.961Z,5.38
2019-02-10T01:50:21.958Z,5.50
2019-02-10T01:51:21.951Z,5.50
2019-02-10T01:52:21.931Z,5.41
2019-02-10T01:53:21.932Z,5.43
2019-02-10T01:54:21.923Z,5.41
2019-02-10T01:55:21.914Z,5.45
2019-02-10T01:56:21.907Z,5.45
2019-02-10T01:57:21.900Z,5.43
2019-02-10T01:58:21.890Z,5.55
2019-02-10T01:59:21.873Z,5.41
2019-02-10T02:00:21.884Z,5.45
2019-02-10T02:01:21.867Z,5.22
2019-02-10T02:02:21.850Z,5.35
2019-02-10T02:03:21.849Z,5.38
2019-02-10T02:04:21.839Z,5.31
2019-02-10T02:05:21.832Z,5.25
2019-02-10T02:06:21.815Z,5.31
2019-02-10T02:07:21.817Z,5.20
2019-02-10T02:08:21.808Z,5.16
2019-02-10T02:09:21.798Z,5.19
2019-02-10T02:10:21.782Z,5.31
2019-02-10T02:11:21.798Z,5.46
2019-02-10T02:12:21.774Z,5.41
2019-02-10T02:13:21.764Z,5.45
2019-02-10T02:14:21.759Z,5.50
2019-02-10T02:15:21.743Z,5.49
2019-02-10T02:16:21.739Z,5.41
2019-02-10T02:17:21.733Z,5.49
2019-02-10T02:18:21.723Z,5.40
2019-02-10T02:19:21.715Z,5.40
2019-02-10T02:20:21.712Z,5.22
2019-02-10T02:21:21.697Z,5.31
2019-02-10T02:22:21.689Z,5.35
2019-02-10T02:23:21.691Z,5.38
2019-02-10T02:24:21.674Z,5.25
2019-02-10T02:25:21.667Z,5.31
2019-02-10T02:26:21.694Z,5.20
2019-02-10T02:27:21.650Z,5.22
2019-02-10T02:28:21.642Z,5.17
2019-02-10T02:29:21.636Z,5.05
2019-02-10T02:30:21.623Z,5.07
2019-02-10T02:31:21.612Z,5.10
2019-02-10T02:32:21.609Z,5.09
2019-02-10T02:33:21.605Z,4.98
2019-02-10T02:34:21.612Z,5.01
2019-02-10T02:35:21.579Z,4.96
2019-02-10T02:36:21.570Z,4.95
2019-02-10T02:37:21.563Z,4.99
2019-02-10T02:38:21.556Z,5.02
2019-02-10T02:39:21.547Z,5.07
2019-02-10T02:40:21.543Z,4.99
2019-02-10T02:41:21.532Z,4.89
2019-02-10T02:42:21.521Z,4.92
2019-02-10T02:43:21.518Z,5.01
2019-02-10T02:44:21.497Z,5.05
2019-02-10T02:45:21.492Z,4.95
2019-02-10T02:46:21.492Z,4.98
2019-02-10T02:47:21.482Z,5.01
2019-02-10T02:48:21.472Z,5.04
2019-02-10T02:49:21.464Z,5.04
2019-02-10T02:50:21.452Z,5.02
2019-02-10T02:51:21.447Z,4.99
2019-02-10T02:52:21.438Z,4.95
2019-02-10T02:53:21.428Z,5.04
2019-02-10T02:54:21.422Z,4.89
2019-02-10T02:55:21.419Z,4.86
2019-02-10T02:56:21.393Z,4.95
2019-02-10T02:57:21.394Z,4.89
2019-02-10T02:58:21.408Z,4.89
2019-02-10T02:59:21.440Z,4.94
2019-02-10T03:00:21.360Z,4.89
2019-02-10T03:01:21.364Z,4.89
2019-02-10T03:02:21.344Z,4.88
2019-02-10T03:03:21.344Z,4.94
2019-02-10T03:04:21.356Z,4.79
2019-02-10T03:05:21.331Z,4.83
2019-02-10T03:06:21.320Z,4.83
2019-02-10T03:07:21.322Z,4.84
2019-02-10T03:08:21.289Z,4.83
2019-02-10T03:09:21.295Z,4.91
2019-02-10T03:10:21.293Z,4.77
2019-02-10T03:11:21.272Z,4.80
2019-02-10T03:12:21.269Z,4.84
2019-02-10T03:13:21.264Z,4.91
2019-02-10T03:14:21.252Z,4.91
2019-02-10T03:15:21.237Z,4.80
2019-02-10T03:16:21.227Z,4.84
2019-02-10T03:17:21.224Z,4.83
2019-02-10T03:18:21.216Z,4.75
2019-02-10T03:19:21.226Z,4.73
2019-02-10T03:20:21.193Z,4.84
2019-02-10T03:21:21.202Z,4.83
2019-02-10T03:22:21.182Z,4.75
2019-02-10T03:23:21.178Z,4.84
2019-02-10T03:24:21.166Z,4.76
2019-02-10T03:25:21.159Z,4.83
2019-02-10T03:26:21.142Z,4.79
2019-02-10T03:27:21.190Z,4.79
2019-02-10T03:28:21.132Z,4.76
2019-02-10T03:29:21.138Z,4.79
2019-02-10T03:30:21.107Z,4.88
2019-02-10T03:31:21.109Z,4.88
2019-02-10T03:32:21.108Z,4.86
2019-02-10T03:33:21.091Z,4.76
2019-02-10T03:34:21.085Z,4.79
2019-02-10T03:35:21.071Z,4.69
2019-02-10T03:36:21.059Z,4.69
2019-02-10T03:37:26.809Z,4.75
2019-02-10T03:38:21.040Z,4.69
2019-02-10T03:39:21.041Z,4.65
2019-02-10T03:40:21.024Z,4.72
2019-02-10T03:41:21.014Z,4.70
2019-02-10T03:42:21.007Z,4.75
2019-02-10T03:43:21.028Z,4.83
2019-02-10T03:44:20.983Z,4.75
2019-02-10T03:45:20.983Z,4.73
2019-02-10T03:46:20.972Z,4.72
2019-02-10T03:47:22.198Z,4.79
2019-02-10T03:48:20.964Z,4.69
2019-02-10T03:49:20.941Z,4.77
2019-02-10T03:50:20.946Z,4.73
2019-02-10T03:51:20.929Z,4.77
2019-02-10T03:52:20.926Z,4.79
2019-02-10T03:53:20.929Z,4.84
2019-02-10T03:54:20.934Z,4.79
2019-02-10T03:55:20.891Z,4.86
2019-02-10T03:56:20.887Z,4.76
2019-02-10T03:57:20.879Z,4.80
2019-02-10T03:58:20.857Z,4.73
2019-02-10T03:59:20.861Z,4.73
2019-02-10T04:00:20.851Z,4.88
2019-02-10T04:01:20.842Z,4.96
2019-02-10T04:02:20.834Z,4.83
2019-02-10T04:03:20.824Z,4.86
2019-02-10T04:04:20.822Z,4.84
2019-02-10T04:05:20.815Z,4.75
2019-02-10T04:06:20.798Z,4.70
2019-02-10T04:07:20.789Z,4.64
2019-02-10T04:08:20.772Z,4.59
2019-02-10T04:09:20.771Z,4.59
2019-02-10T04:10:20.807Z,4.59
2019-02-10T04:11:20.750Z,4.54
2019-02-10T04:12:20.743Z,4.65
2019-02-10T04:13:20.741Z,4.62
2019-02-10T04:14:20.726Z,4.67
2019-02-10T04:15:20.717Z,4.69
2019-02-10T04:16:20.713Z,4.65
2019-02-10T04:17:20.699Z,4.44
2019-02-10T04:18:20.704Z,4.40
2019-02-10T04:19:20.684Z,4.43
2019-02-10T04:20:20.675Z,4.39
2019-02-10T04:21:20.665Z,4.28
2019-02-10T04:22:20.702Z,4.29
2019-02-10T04:23:20.650Z,4.28
2019-02-10T04:24:20.639Z,4.18
2019-02-10T04:25:20.624Z,4.10
2019-02-10T04:26:20.620Z,4.03
2019-02-10T04:27:20.630Z,3.98
2019-02-10T04:28:20.609Z,4.06
2019-02-10T04:29:20.644Z,3.96
2019-02-10T04:30:20.586Z,4.04
2019-02-10T04:31:20.576Z,3.98
2019-02-10T04:32:20.571Z,4.07
2019-02-10T04:33:20.553Z,4.06
2019-02-10T04:34:20.551Z,3.97
2019-02-10T04:35:20.581Z,4.08
2019-02-10T04:36:20.533Z,4.03
2019-02-10T04:37:20.576Z,3.92
2019-02-10T04:38:20.512Z,3.90
2019-02-10T04:39:20.497Z,3.89
2019-02-10T04:40:20.507Z,3.94
2019-02-10T04:41:20.514Z,3.92
2019-02-10T04:42:20.523Z,3.88
2019-02-10T04:43:20.463Z,3.97
2019-02-10T04:44:20.518Z,3.96
2019-02-10T04:45:20.454Z,4.07
2019-02-10T04:46:20.446Z,4.01
2019-02-10T04:47:20.429Z,4.07
2019-02-10T04:48:20.448Z,4.03
2019-02-10T04:49:20.425Z,4.06
2019-02-10T04:50:20.417Z,4.01
2019-02-10T04:51:20.413Z,3.96
2019-02-10T04:52:20.390Z,4.03
2019-02-10T04:53:20.374Z,4.24
2019-02-10T04:54:20.381Z,4.25
2019-02-10T04:55:20.366Z,4.21
2019-02-10T04:56:20.358Z,4.03
2019-02-10T04:57:20.344Z,4.18
2019-02-10T04:58:20.336Z,4.28
2019-02-10T04:59:20.327Z,4.40
2019-02-10T05:00:20.338Z,4.50
2019-02-10T05:01:20.375Z,4.55
2019-02-10T05:02:20.300Z,4.57
2019-02-10T05:03:20.292Z,4.47
2019-02-10T05:04:20.288Z,4.54
2019-02-10T05:05:20.272Z,4.59
2019-02-10T05:06:20.263Z,4.46
2019-02-10T05:07:20.256Z,4.40
2019-02-10T05:08:20.245Z,4.36
2019-02-10T05:09:20.236Z,4.24
2019-02-10T05:10:21.734Z,4.33
2019-02-10T05:11:20.213Z,4.32
2019-02-10T05:12:20.214Z,4.39
2019-02-10T05:13:20.207Z,4.50
2019-02-10T05:14:20.192Z,4.50
2019-02-10T05:15:20.183Z,4.43
2019-02-10T05:16:20.168Z,4.44
2019-02-10T05:17:20.165Z,4.46
2019-02-10T05:18:20.155Z,4.47
2019-02-10T05:19:20.144Z,4.39
2019-02-10T05:20:20.137Z,4.37
2019-02-10T05:21:20.126Z,4.18
2019-02-10T05:22:20.116Z,4.10
2019-02-10T05:23:20.116Z,4.03
2019-02-10T05:24:20.090Z,4.04
2019-02-10T05:25:20.101Z,3.98
2019-02-10T05:26:20.081Z,3.86
2019-02-10T05:27:20.076Z,3.83
2019-02-10T05:28:20.069Z,3.72
2019-02-10T05:29:20.054Z,3.72
2019-02-10T05:30:20.045Z,3.67
2019-02-10T05:31:20.042Z,3.65
2019-02-10T05:32:20.037Z,3.60
2019-02-10T05:33:20.024Z,3.65
2019-02-10T05:34:20.010Z,3.54
2019-02-10T05:35:20.019Z,3.54
2019-02-10T05:36:19.987Z,3.46
2019-02-10T05:37:19.976Z,3.54
2019-02-10T05:38:20.006Z,3.49
2019-02-10T05:39:19.963Z,3.58
2019-02-10T05:40:19.960Z,3.42
2019-02-10T05:41:19.944Z,3.46
2019-02-10T05:42:19.938Z,3.43
2019-02-10T05:43:19.922Z,3.46
2019-02-10T05:44:19.939Z,3.46
2019-02-10T05:45:19.906Z,3.50
2019-02-10T05:46:19.894Z,3.43
2019-02-10T05:47:19.902Z,3.49
2019-02-10T05:48:19.881Z,3.40
2019-02-10T05:49:19.859Z,3.44
2019-02-10T05:50:19.861Z,3.50
2019-02-10T05:51:22.460Z,3.54
2019-02-10T05:52:19.834Z,3.50
2019-02-10T05:53:19.838Z,3.42
2019-02-10T05:54:19.826Z,3.46
2019-02-10T05:55:19.818Z,3.43
2019-02-10T05:56:19.803Z,3.58
2019-02-10T05:57:19.804Z,3.83
2019-02-10T05:58:19.784Z,4.32
2019-02-10T05:59:19.778Z,4.46
2019-02-10T06:00:19.782Z,4.47
2019-02-10T06:01:19.765Z,4.43
2019-02-10T06:02:19.771Z,4.42
2019-02-10T06:03:19.741Z,4.29
2019-02-10T06:04:19.737Z,4.46
2019-02-10T06:05:19.723Z,4.57
2019-02-10T06:06:19.717Z,4.64
2019-02-10T06:07:19.730Z,4.65
2019-02-10T06:08:19.697Z,4.64
2019-02-10T06:09:19.691Z,4.59
2019-02-10T06:10:19.678Z,4.52
2019-02-10T06:11:19.666Z,4.47
2019-02-10T06:12:19.659Z,4.42
2019-02-10T06:13:19.669Z,4.54
2019-02-10T06:14:19.642Z,4.89
2019-02-10T06:15:19.638Z,4.96
2019-02-10T06:16:19.623Z,4.95
2019-02-10T06:17:19.635Z,4.92
2019-02-10T06:18:19.604Z,4.83
2019-02-10T06:19:19.613Z,4.83
2019-02-10T06:20:19.603Z,4.99
2019-02-10T06:21:19.581Z,5.01
2019-02-10T06:22:19.574Z,4.98
2019-02-10T06:23:19.563Z,5.01
2019-02-10T06:24:19.608Z,5.28
2019-02-10T06:25:19.554Z,5.41
2019-02-10T06:26:19.542Z,5.68
2019-02-10T06:27:19.525Z,5.67
2019-02-10T06:28:19.523Z,5.77
2019-02-10T06:29:19.507Z,5.83
2019-02-10T06:30:19.504Z,6.00
2019-02-10T06:31:19.493Z,6.00
2019-02-10T06:32:19.488Z,6.04
2019-02-10T06:33:19.474Z,6.03
2019-02-10T06:34:19.466Z,6.06
2019-02-10T06:35:19.456Z,6.09
2019-02-10T06:36:19.453Z,5.98
2019-02-10T06:37:19.439Z,5.96
2019-02-10T06:38:22.597Z,5.93
2019-02-10T06:39:19.415Z,5.93
2019-02-10T06:40:19.415Z,5.89
2019-02-10T06:41:21.824Z,5.77
2019-02-10T06:42:19.399Z,5.73
2019-02-10T06:43:19.388Z,5.74
2019-02-10T06:44:19.394Z,5.75
2019-02-10T06:45:19.372Z,5.86
2019-02-10T06:46:19.363Z,5.75
2019-02-10T06:47:19.354Z,5.73
2019-02-10T06:48:19.346Z,5.68
2019-02-10T06:49:19.357Z,5.75
2019-02-10T06:50:19.327Z,5.71
2019-02-10T06:51:19.323Z,5.77
2019-02-10T06:52:19.309Z,5.71
2019-02-10T06:53:19.322Z,5.78
2019-02-10T06:54:19.310Z,5.77
2019-02-10T06:55:19.287Z,5.83
2019-02-10T06:56:19.282Z,5.74
2019-02-10T06:57:19.271Z,5.73
2019-02-10T06:58:19.263Z,5.59
2019-02-10T06:59:19.244Z,5.64
2019-02-10T07:00:19.248Z,5.66
2019-02-10T07:01:19.241Z,5.55
2019-02-10T07:02:19.230Z,5.46
2019-02-10T07:03:19.226Z,5.43
2019-02-10T07:04:19.211Z,5.48
2019-02-10T07:05:19.208Z,5.46
2019-02-10T07:06:19.200Z,5.48
2019-02-10T07:07:19.191Z,5.32
2019-02-10T07:08:19.195Z,5.38
2019-02-10T07:09:19.166Z,5.49
2019-02-10T07:10:19.178Z,5.45
2019-02-10T07:11:19.161Z,5.45
2019-02-10T07:12:19.140Z,5.64
2019-02-10T07:13:19.157Z,5.81
2019-02-10T07:14:19.140Z,6.01
2019-02-10T07:15:19.127Z,6.14
2019-02-10T07:16:19.121Z,6.41
2019-02-10T07:17:19.113Z,6.58
2019-02-10T07:18:19.106Z,6.58
2019-02-10T07:19:19.100Z,6.47
2019-02-10T07:20:19.090Z,6.61
2019-02-10T07:21:19.092Z,6.72
2019-02-10T07:22:19.077Z,6.91
2019-02-10T07:23:19.069Z,7.07
2019-02-10T07:24:19.063Z,7.29
2019-02-10T07:25:19.054Z,7.53
2019-02-10T07:26:19.048Z,7.77
2019-02-10T07:27:19.040Z,7.89
2019-02-10T07:28:19.052Z,7.92
2019-02-10T07:29:19.038Z,7.87
2019-02-10T07:30:19.022Z,7.82
2019-02-10T07:31:19.016Z,7.87
2019-02-10T07:32:19.009Z,7.78
2019-02-10T07:33:19.004Z,7.59
2019-02-10T07:34:19.003Z,7.38
2019-02-10T07:35:19.011Z,7.24
2019-02-10T07:36:18.986Z,7.19
2019-02-10T07:37:18.979Z,6.98
2019-02-10T07:38:18.983Z,7.05
2019-02-10T07:39:19.002Z,7.09
2019-02-10T07:40:18.962Z,7.08
2019-02-10T07:41:18.970Z,7.08
2019-02-10T07:42:18.949Z,7.08
2019-02-10T07:43:18.949Z,7.15
2019-02-10T07:44:18.945Z,6.94
2019-02-10T07:45:18.926Z,6.79
2019-02-10T07:46:18.925Z,6.69
2019-02-10T07:47:18.931Z,6.76
2019-02-10T07:48:18.910Z,6.77
2019-02-10T07:49:18.925Z,6.89
2019-02-10T07:50:18.935Z,6.76
2019-02-10T07:51:18.895Z,6.77
2019-02-10T07:52:18.885Z,6.72
2019-02-10T07:53:18.891Z,6.72
2019-02-10T07:54:18.875Z,6.71
2019-02-10T07:55:18.867Z,6.71
2019-02-10T07:56:18.861Z,6.61
2019-02-10T07:57:18.855Z,6.59
2019-02-10T07:58:18.849Z,6.40
2019-02-10T07:59:18.858Z,6.53
2019-02-10T08:00:18.851Z,6.54
2019-02-10T08:01:18.830Z,6.68
2019-02-10T08:02:18.833Z,6.66
2019-02-10T08:03:18.828Z,6.59
2019-02-10T08:04:18.811Z,6.44
2019-02-10T08:05:18.801Z,6.44
2019-02-10T08:06:18.792Z,6.48
2019-02-10T08:07:18.787Z,6.47
2019-02-10T08:08:18.788Z,6.61
2019-02-10T08:09:18.786Z,6.68
2019-02-10T08:10:18.771Z,6.77
2019-02-10T08:11:18.762Z,6.73
2019-02-10T08:12:18.758Z,6.76
2019-02-10T08:13:18.749Z,6.76
2019-02-10T08:14:18.746Z,6.84
2019-02-10T08:15:18.743Z,6.91
2019-02-10T08:16:18.731Z,6.84
2019-02-10T08:17:18.721Z,6.91
2019-02-10T08:18:18.715Z,6.89
2019-02-10T08:19:18.730Z,6.98
2019-02-10T08:20:18.702Z,6.99
2019-02-10T08:21:18.698Z,7.02
2019-02-10T08:22:19.969Z,7.12
2019-02-10T08:23:18.683Z,7.20
2019-02-10T08:24:20.932Z,7.19
2019-02-10T08:25:18.681Z,7.29
2019-02-10T08:26:18.664Z,7.34
2019-02-10T08:27:18.660Z,7.32
2019-02-10T08:28:18.655Z,7.40
2019-02-10T08:29:18.646Z,7.53
2019-02-10T08:30:18.638Z,7.56
2019-02-10T08:31:18.631Z,7.40
2019-02-10T08:32:18.629Z,7.41
2019-02-10T08:33:18.621Z,7.37
2019-02-10T08:34:18.612Z,7.53
2019-02-10T08:35:18.608Z,7.53
2019-02-10T08:36:18.622Z,7.62
2019-02-10T08:37:18.597Z,7.71
2019-02-10T08:38:18.588Z,7.78
2019-02-10T08:39:18.583Z,7.85
2019-02-10T08:40:18.577Z,7.96
2019-02-10T08:41:18.565Z,8.02
2019-02-10T08:42:18.566Z,8.10
2019-02-10T08:43:18.560Z,8.22
2019-02-10T08:44:18.556Z,8.25
2019-02-10T08:45:18.549Z,8.33
2019-02-10T08:46:18.546Z,8.33
2019-02-10T08:47:18.540Z,8.42
2019-02-10T08:48:18.536Z,8.53
2019-02-10T08:49:18.529Z,8.69
2019-02-10T08:50:18.523Z,8.68
2019-02-10T08:51:18.529Z,8.75
2019-02-10T08:52:18.512Z,8.72
2019-02-10T08:53:18.508Z,8.73
2019-02-10T08:54:18.536Z,8.73
2019-02-10T08:55:18.496Z,8.78
2019-02-10T08:56:18.490Z,8.73
2019-02-10T08:57:18.490Z,8.72
2019-02-10T08:58:18.482Z,8.81
2019-02-10T08:59:18.479Z,8.79
2019-02-10T09:00:18.483Z,8.84
2019-02-10T09:01:18.469Z,8.88
2019-02-10T09:02:18.454Z,9.02
2019-02-10T09:03:19.820Z,9.12
2019-02-10T09:04:18.452Z,9.38
2019-02-10T09:05:18.464Z,9.63
2019-02-10T09:06:18.446Z,9.85
2019-02-10T09:07:18.438Z,9.97
2019-02-10T09:08:18.435Z,10.18
2019-02-10T09:09:18.456Z,10.44
2019-02-10T09:10:18.421Z,10.55
2019-02-10T09:11:18.421Z,10.52
2019-02-10T09:12:18.426Z,10.53
2019-02-10T09:13:18.431Z,10.44
2019-02-10T09:14:20.713Z,10.36
2019-02-10T09:15:20.648Z,10.28
2019-02-10T09:16:18.406Z,10.09
2019-02-10T09:17:18.386Z,10.03
2019-02-10T09:18:18.391Z,9.99
2019-02-10T09:19:18.383Z,9.96
2019-02-10T09:20:18.397Z,10.07
2019-02-10T09:21:18.382Z,10.22
2019-02-10T09:22:18.376Z,10.36
2019-02-10T09:23:18.375Z,10.44
2019-02-10T09:24:18.378Z,10.46
2019-02-10T09:25:18.370Z,10.51
2019-02-10T09:26:18.364Z,10.51
2019-02-10T09:27:18.361Z,10.70
2019-02-10T09:28:18.362Z,10.81
2019-02-10T09:29:18.349Z,10.89
2019-02-10T09:30:18.347Z,10.89
2019-02-10T09:31:18.361Z,11.02
2019-02-10T09:32:18.327Z,10.98
2019-02-10T09:33:18.338Z,11.14
2019-02-10T09:34:18.332Z,11.35
2019-02-10T09:35:18.326Z,11.64
2019-02-10T09:36:18.326Z,11.75
2019-02-10T09:37:18.349Z,11.94
2019-02-10T09:38:18.320Z,12.15
2019-02-10T09:39:18.312Z,12.37
2019-02-10T09:40:18.314Z,12.66
2019-02-10T09:41:18.321Z,12.59
2019-02-10T09:42:18.307Z,12.77
2019-02-10T09:43:18.329Z,13.14
2019-02-10T09:44:18.302Z,13.37
2019-02-10T09:45:18.297Z,13.63
2019-02-10T09:46:18.295Z,13.63
2019-02-10T09:47:18.290Z,13.27
2019-02-10T09:48:18.295Z,12.88
2019-02-10T09:49:18.327Z,13.11
2019-02-10T09:50:18.286Z,13.32
2019-02-10T09:51:18.286Z,13.62
2019-02-10T09:52:18.281Z,13.61
2019-02-10T09:53:18.280Z,13.84
2019-02-10T09:54:18.302Z,13.77
2019-02-10T09:55:18.305Z,14.13
2019-02-10T09:56:18.277Z,14.17
2019-02-10T09:57:18.275Z,14.16
2019-02-10T09:58:18.292Z,14.17
2019-02-10T09:59:18.272Z,14.65
2019-02-10T10:00:18.271Z,14.90
2019-02-10T10:01:18.266Z,14.65
2019-02-10T10:02:18.268Z,14.29
2019-02-10T10:03:18.281Z,13.80
2019-02-10T10:04:18.265Z,13.59
2019-02-10T10:05:18.321Z,14.02
2019-02-10T10:06:20.507Z,14.42
2019-02-10T10:07:18.275Z,14.83
2019-02-10T10:08:18.260Z,14.37
2019-02-10T10:09:19.683Z,13.51
2019-02-10T10:10:18.264Z,13.59
2019-02-10T10:11:18.264Z,14.25
2019-02-10T10:12:18.265Z,14.21
2019-02-10T10:13:18.258Z,14.17
2019-02-10T10:14:19.738Z,14.02
2019-02-10T10:15:18.258Z,13.95
2019-02-10T10:16:18.268Z,13.95
2019-02-10T10:17:18.258Z,13.84
2019-02-10T10:18:18.278Z,13.63
2019-02-10T10:19:18.264Z,13.63
2019-02-10T10:20:18.262Z,13.55
2019-02-10T10:21:18.289Z,13.37
2019-02-10T10:22:18.300Z,12.71
2019-02-10T10:23:18.276Z,12.39
2019-02-10T10:24:18.265Z,12.33
2019-02-10T10:25:18.259Z,12.42
2019-02-10T10:26:18.279Z,13.58
2019-02-10T10:27:18.246Z,14.56
2019-02-10T10:28:18.268Z,14.64
2019-02-10T10:29:18.255Z,14.14
2019-02-10T10:30:18.257Z,14.99
2019-02-10T10:31:18.251Z,15.41
2019-02-10T10:32:18.267Z,15.57
2019-02-10T10:33:18.256Z,14.93
2019-02-10T10:34:18.250Z,14.68
2019-02-10T10:35:18.256Z,14.52
2019-02-10T10:36:18.257Z,14.16
2019-02-10T10:37:18.259Z,14.13
2019-02-10T10:38:18.259Z,13.88
2019-02-10T10:39:18.303Z,13.94
2019-02-10T10:40:18.276Z,13.70
2019-02-10T10:41:18.260Z,13.94
2019-02-10T10:42:18.323Z,13.79
2019-02-10T10:43:18.265Z,13.59
2019-02-10T10:44:18.267Z,13.20
2019-02-10T10:45:18.270Z,13.15
2019-02-10T10:46:18.270Z,13.52
2019-02-10T10:47:18.296Z,13.79
2019-02-10T10:48:18.271Z,13.44
2019-02-10T10:49:18.274Z,13.18
2019-02-10T10:50:18.275Z,12.88
2019-02-10T10:51:18.277Z,12.88
2019-02-10T10:52:18.265Z,12.82
2019-02-10T10:53:18.275Z,12.56
2019-02-10T10:54:18.276Z,12.78
2019-02-10T10:55:18.272Z,12.63
2019-02-10T10:56:18.977Z,12.69
2019-02-10T10:57:18.276Z,12.81
2019-02-10T10:58:18.270Z,12.56
2019-02-10T10:59:18.269Z,12.45
2019-02-10T11:00:18.259Z,12.30
2019-02-10T11:01:25.138Z,12.11
2019-02-10T11:02:18.280Z,11.80
2019-02-10T11:03:18.264Z,11.82
2019-02-10T11:04:18.262Z,11.97
2019-02-10T11:05:18.260Z,11.72
2019-02-10T11:06:18.258Z,12.06
2019-02-10T11:07:18.253Z,11.99
2019-02-10T11:08:18.251Z,11.89
2019-02-10T11:09:18.248Z,11.65
2019-02-10T11:10:18.239Z,11.43
2019-02-10T11:11:18.244Z,11.34
2019-02-10T11:12:18.244Z,11.41
2019-02-10T11:13:18.239Z,11.64
2019-02-10T11:14:18.237Z,11.96
2019-02-10T11:15:18.236Z,12.02
2019-02-10T11:16:18.232Z,12.08
2019-02-10T11:17:18.265Z,11.82
2019-02-10T11:18:18.244Z,11.65
2019-02-10T11:19:18.228Z,11.93
2019-02-10T11:20:18.213Z,12.05
2019-02-10T11:21:18.215Z,12.24
2019-02-10T11:22:18.221Z,12.01
2019-02-10T11:23:18.209Z,12.05
2019-02-10T11:24:18.214Z,12.15
2019-02-10T11:25:18.210Z,12.01
2019-02-10T11:26:18.209Z,12.26
2019-02-10T11:27:18.201Z,12.29
2019-02-10T11:28:18.241Z,12.39
2019-02-10T11:29:18.194Z,12.44
2019-02-10T11:30:18.191Z,12.96
2019-02-10T11:31:18.179Z,13.59
2019-02-10T11:32:18.211Z,14.27
2019-02-10T11:33:18.191Z,15.01
2019-02-10T11:34:18.182Z,15.54
2019-02-10T11:35:18.178Z,15.67
2019-02-10T11:36:18.192Z,15.76
2019-02-10T11:37:18.176Z,16.00
2019-02-10T11:38:18.173Z,16.40
2019-02-10T11:39:18.176Z,16.71
2019-02-10T11:40:18.190Z,17.10
2019-02-10T11:41:18.194Z,17.89
2019-02-10T11:42:18.170Z,18.46
2019-02-10T11:43:18.167Z,17.76
2019-02-10T11:44:18.162Z,17.63
2019-02-10T11:45:18.173Z,16.98
2019-02-10T11:46:18.172Z,16.62
2019-02-10T11:47:18.173Z,15.68
2019-02-10T11:48:18.163Z,15.48
2019-02-10T11:49:18.171Z,15.09
2019-02-10T11:50:18.173Z,15.06
2019-02-10T11:51:18.912Z,14.91
2019-02-10T11:52:18.179Z,15.13
2019-02-10T11:53:18.180Z,15.72
2019-02-10T11:54:18.177Z,15.43
2019-02-10T11:55:18.172Z,15.17
2019-02-10T11:56:18.167Z,15.38
2019-02-10T11:57:18.181Z,15.81
2019-02-10T11:58:18.170Z,16.14
2019-02-10T11:59:18.182Z,15.67
2019-02-10T12:00:18.208Z,15.19
2019-02-10T12:01:18.175Z,14.94
2019-02-10T12:02:18.180Z,14.78
2019-02-10T12:03:18.182Z,14.68
2019-02-10T12:04:18.183Z,14.74
2019-02-10T12:05:18.185Z,14.83
2019-02-10T12:06:18.200Z,14.95
2019-02-10T12:07:18.216Z,14.95
2019-02-10T12:08:18.184Z,14.90
2019-02-10T12:09:18.186Z,14.44
2019-02-10T12:10:18.186Z,14.49
2019-02-10T12:11:18.185Z,14.57
2019-02-10T12:12:18.184Z,14.84
2019-02-10T12:13:18.186Z,15.08
2019-02-10T12:14:18.180Z,14.90
2019-02-10T12:15:18.197Z,14.32
2019-02-10T12:16:18.333Z,13.87
2019-02-10T12:17:18.187Z,13.98
2019-02-10T12:18:18.179Z,14.14
2019-02-10T12:19:18.191Z,14.21
2019-02-10T12:20:18.183Z,14.50
2019-02-10T12:21:18.182Z,14.09
2019-02-10T12:22:18.186Z,13.96
2019-02-10T12:23:18.180Z,13.30
2019-02-10T12:24:18.180Z,12.87
2019-02-10T12:25:18.178Z,12.92
2019-02-10T12:26:18.177Z,12.99
2019-02-10T12:27:18.175Z,13.04
2019-02-10T12:28:18.210Z,13.25
2019-02-10T12:29:18.174Z,13.27
2019-02-10T12:30:18.171Z,13.20
2019-02-10T12:31:18.171Z,13.30
2019-02-10T12:32:18.169Z,13.24
2019-02-10T12:33:18.162Z,13.59
2019-02-10T12:34:18.164Z,13.79
2019-02-10T12:35:18.169Z,13.83
2019-02-10T12:36:18.161Z,14.21
2019-02-10T12:37:18.156Z,14.47
2019-02-10T12:38:18.157Z,14.60
2019-02-10T12:39:18.157Z,14.72
2019-02-10T12:40:18.142Z,14.62
2019-02-10T12:41:18.151Z,14.44
2019-02-10T12:42:18.937Z,14.35
2019-02-10T12:43:18.153Z,14.35
2019-02-10T12:44:18.169Z,13.91
2019-02-10T12:45:18.144Z,13.40
2019-02-10T12:46:18.142Z,12.95
2019-02-10T12:47:18.146Z,12.99
2019-02-10T12:48:18.158Z,13.14
2019-02-10T12:49:18.132Z,13.29
2019-02-10T12:50:18.134Z,13.30
2019-02-10T12:51:18.133Z,13.32
2019-02-10T12:52:18.129Z,13.20
2019-02-10T12:53:18.124Z,13.29
2019-02-10T12:54:18.129Z,12.97
2019-02-10T12:55:18.118Z,12.88
2019-02-10T12:56:18.119Z,12.95
2019-02-10T12:57:18.116Z,13.00
2019-02-10T12:58:18.113Z,13.03
2019-02-10T12:59:18.114Z,12.97
2019-02-10T13:00:18.108Z,12.95
2019-02-10T13:01:18.107Z,13.15
2019-02-10T13:02:18.098Z,13.18
2019-02-10T13:03:18.100Z,13.14
2019-02-10T13:04:18.107Z,12.99
2019-02-10T13:05:18.099Z,12.87
2019-02-10T13:06:18.084Z,12.92
2019-02-10T13:07:18.090Z,12.77
2019-02-10T13:08:18.090Z,12.54
2019-02-10T13:09:18.078Z,12.39
2019-02-10T13:10:18.481Z,12.24